Time;durP1;ratioP1;P1;durP2;ratioP2;P2;SDS_P1;SDS_P2;PMS_P1;PMS_P2;Temp;Humidity;BMP_temperature;BMP_pressure;BME280_temperature;BME280_humidity;BME280_pressure;Samples;Min_cycle;Max_cycle;Signal;HPM_P1;HPM_P2
2022/01/31 00:01:31;;;;;;;16.60;8.68;;;;;;;3.63;100.00;101674.56;5186975;28;20029;-58
2022/01/31 00:04:02;;;;;;;10.77;9.63;;;;;;;3.71;100.00;101674.44;5169272;28;20092;-58
2022/01/31 00:06:32;;;;;;;9.52;8.65;;;;;;;3.73;100.00;101657.22;5186271;28;20076;-60
2022/01/31 00:09:03;;;;;;;12.35;9.50;;;;;;;3.69;100.00;101637.25;5186904;28;20034;-59
2022/01/31 00:11:41;;;;;;;15.77;7.78;;;;;;;3.79;100.00;101636.06;5169054;28;20029;-61
2022/01/31 00:14:29;;;;;;;20.75;8.68;;;;;;;3.76;100.00;101618.59;5168748;28;20056;-60
2022/01/31 00:17:00;;;;;;;27.55;9.25;;;;;;;3.83;100.00;101600.78;5169190;28;20031;-59
2022/01/31 00:19:31;;;;;;;11.70;8.18;;;;;;;3.90;100.00;101608.84;5186638;28;20509;-59
2022/01/31 00:22:03;;;;;;;9.18;7.88;;;;;;;3.89;100.00;101589.31;5186598;28;20105;-59
2022/01/31 00:24:34;;;;;;;22.38;9.68;;;;;;;3.94;100.00;101592.22;5168674;28;20073;-61
2022/01/31 00:27:07;;;;;;;8.57;7.00;;;;;;;3.97;100.00;101578.50;5168326;28;20490;-61
2022/01/31 00:29:37;;;;;;;12.35;6.47;;;;;;;3.92;100.00;101564.88;5168844;28;20025;-60
2022/01/31 00:32:08;;;;;;;15.00;7.68;;;;;;;4.02;100.00;101556.53;5186412;28;20209;-59
2022/01/31 00:34:39;;;;;;;15.48;7.18;;;;;;;4.06;100.00;101549.75;5168409;28;20014;-58
2022/01/31 00:37:09;;;;;;;10.43;7.40;;;;;;;4.09;100.00;101549.34;5168674;28;20512;-61
2022/01/31 00:39:40;;;;;;;10.10;7.30;;;;;;;4.12;100.00;101513.38;5168632;28;20029;-58
2022/01/31 00:42:10;;;;;;;10.68;8.30;;;;;;;4.13;100.00;101518.53;5168524;28;20026;-58
2022/01/31 00:44:50;;;;;;;6.93;6.38;;;;;;;4.08;100.00;101508.44;5168513;28;20060;-58
2022/01/31 00:47:26;;;;;;;;;;;;;;;4.16;100.00;101498.63;5168858;28;20032;-58
2022/01/31 00:50:10;;;;;;;7.68;6.95;;;;;;;4.14;100.00;101464.06;5168593;28;19960;-58
2022/01/31 00:52:43;;;;;;;26.45;7.55;;;;;;;4.12;100.00;101466.09;5168351;28;20022;-58
2022/01/31 00:55:14;;;;;;;9.98;7.47;;;;;;;4.12;100.00;101451.91;5168041;28;20394;-58
2022/01/31 00:57:45;;;;;;;17.48;7.47;;;;;;;4.14;100.00;101428.50;5185589;28;20049;-59
2022/01/31 01:00:16;;;;;;;18.30;8.80;;;;;;;4.17;100.00;101441.47;5168048;28;20075;-59
2022/01/31 01:02:46;;;;;;;14.90;9.10;;;;;;;4.18;100.00;101413.69;5168013;28;20213;-62
2022/01/31 01:05:17;;;;;;;16.63;6.28;;;;;;;4.09;100.00;101399.69;5167878;28;20557;-59
2022/01/31 01:07:47;;;;;;;19.10;8.43;;;;;;;4.14;100.00;101429.31;5168039;28;20022;-59
2022/01/31 01:10:19;;;;;;;15.27;8.25;;;;;;;4.11;100.00;101402.97;5167462;28;20485;-57
2022/01/31 01:12:49;;;;;;;17.08;7.05;;;;;;;4.06;100.00;101408.91;5167717;28;20029;-59
2022/01/31 01:15:20;;;;;;;18.05;9.35;;;;;;;4.05;100.00;101396.59;5185128;28;20026;-60
2022/01/31 01:17:50;;;;;;;12.48;7.28;;;;;;;4.02;100.00;101397.00;5166886;28;20022;-59
2022/01/31 01:20:21;;;;;;;7.72;7.07;;;;;;;3.95;100.00;101376.63;5167821;28;20037;-58
2022/01/31 01:22:52;;;;;;;14.23;7.72;;;;;;;3.90;100.00;101365.69;5167854;28;20386;-58
2022/01/31 01:25:22;;;;;;;15.63;8.30;;;;;;;3.83;100.00;101368.34;5167365;28;20029;-57
2022/01/31 01:27:54;;;;;;;9.32;8.43;;;;;;;3.79;100.00;101353.72;5167751;28;20025;-58
2022/01/31 01:30:24;;;;;;;11.27;9.10;;;;;;;3.71;100.00;101354.75;5167826;28;20021;-59
2022/01/31 01:35:33;;;;;;;9.85;8.55;;;;;;;3.68;100.00;101327.59;5185052;28;20072;-59
2022/01/31 01:38:07;;;;;;;12.75;8.32;;;;;;;3.67;100.00;101323.28;5167614;28;20092;-59
2022/01/31 01:40:39;;;;;;;12.18;8.38;;;;;;;3.60;100.00;101301.88;5167384;28;20026;-58
2022/01/31 01:43:11;;;;;;;14.00;9.60;;;;;;;3.63;100.00;101281.97;5167393;28;20088;-59
2022/01/31 01:45:42;;;;;;;15.02;9.75;;;;;;;3.62;100.00;101281.16;5167150;28;20022;-59
2022/01/31 01:48:13;;;;;;;14.15;9.63;;;;;;;3.63;100.00;101284.66;5167349;28;20025;-58
2022/01/31 01:50:47;;;;;;;10.18;8.90;;;;;;;3.61;100.00;101284.03;5167557;28;20080;-59
2022/01/31 01:53:19;;;;;;;9.98;8.85;;;;;;;3.60;100.00;101285.88;5167355;28;20034;-58
2022/01/31 01:55:52;;;;;;;9.10;8.32;;;;;;;3.59;100.00;101270.88;5166994;28;20037;-59
2022/01/31 01:58:37;;;;;;;25.98;9.02;;;;;;;3.54;100.00;101245.78;5167367;28;20117;-59
2022/01/31 02:01:10;;;;;;;14.77;9.95;;;;;;;3.63;100.00;101252.59;5166871;28;20029;-59
2022/01/31 02:03:40;;;;;;;9.45;7.30;;;;;;;3.64;100.00;101251.59;5167025;28;20549;-59
2022/01/31 02:06:11;;;;;;;9.95;8.55;;;;;;;3.62;100.00;101253.63;5167175;28;20117;-58
2022/01/31 02:08:44;;;;;;;18.15;9.45;;;;;;;3.51;100.00;101240.84;5166829;28;20401;-58
2022/01/31 02:11:14;;;;;;;23.17;10.52;;;;;;;3.70;100.00;101248.94;5150909;28;20069;-59
2022/01/31 02:13:45;;;;;;;12.30;8.98;;;;;;;3.58;100.00;101215.00;5167107;28;20033;-58
2022/01/31 02:16:17;;;;;;;9.15;8.30;;;;;;;3.78;100.00;101261.25;5167150;28;20025;-59
2022/01/31 02:18:50;;;;;;;15.90;9.10;;;;;;;3.83;100.00;101232.09;5167347;28;20057;-57
2022/01/31 02:21:20;;;;;;;11.63;8.52;;;;;;;3.87;100.00;101219.16;5167130;28;20056;-60
2022/01/31 02:23:52;;;;;;;15.55;8.23;;;;;;;3.88;100.00;101204.78;5184346;28;20022;-61
2022/01/31 02:26:22;;;;;;;10.07;9.07;;;;;;;3.93;100.00;101200.47;5166937;28;20026;-60
2022/01/31 02:28:53;;;;;;;15.40;7.93;;;;;;;3.94;100.00;101183.41;5184172;28;20474;-57
2022/01/31 02:31:23;;;;;;;8.65;7.93;;;;;;;3.97;100.00;101198.22;5166981;28;20398;-59
2022/01/31 02:33:54;;;;;;;14.73;9.38;;;;;;;4.02;100.00;101196.59;5166635;28;20030;-58
2022/01/31 02:36:24;;;;;;;7.80;7.03;;;;;;;4.07;100.00;101191.44;5166735;28;20071;-57
2022/01/31 02:38:55;;;;;;;8.18;7.43;;;;;;;4.07;100.00;101183.41;5166676;28;20459;-57
2022/01/31 02:41:27;;;;;;;7.15;6.60;;;;;;;4.16;100.00;101192.06;5166700;28;20548;-56
2022/01/31 02:43:59;;;;;;;14.90;8.23;;;;;;;4.21;100.00;101186.09;5166484;28;20099;-60
2022/01/31 02:46:31;;;;;;;10.52;6.50;;;;;;;4.20;100.00;101193.28;5166821;28;20490;-61
2022/01/31 02:49:02;;;;;;;7.55;6.93;;;;;;;4.24;100.00;101186.50;5166715;28;20022;-60
2022/01/31 02:51:36;;;;;;;6.57;6.18;;;;;;;4.26;100.00;101203.16;5166968;28;20033;-59
2022/01/31 02:54:07;;;;;;;7.03;6.43;;;;;;;4.29;100.00;101188.56;5169427;28;20324;-59
2022/01/31 02:56:41;;;;;;;9.55;6.32;;;;;;;4.31;100.00;101194.53;5167324;28;20037;-60
2022/01/31 02:59:11;;;;;;;7.07;6.28;;;;;;;4.32;100.00;101190.84;5167530;28;20510;-58
2022/01/31 03:01:42;;;;;;;7.70;6.90;;;;;;;4.33;100.00;101195.16;5166939;28;20112;-61
2022/01/31 03:04:13;;;;;;;9.15;8.32;;;;;;;4.37;100.00;101185.66;5166776;28;20037;-61
2022/01/31 03:06:49;;;;;;;11.93;6.90;;;;;;;4.38;100.00;101179.28;5167052;28;20089;-61
2022/01/31 03:09:19;;;;;;;10.18;8.35;;;;;;;4.44;100.00;101183.81;5166752;28;20022;-61
2022/01/31 03:11:51;;;;;;;8.43;7.45;;;;;;;4.38;100.00;101169.41;5166468;28;20037;-60
2022/01/31 03:14:22;;;;;;;9.40;8.57;;;;;;;4.49;100.00;101176.00;5166256;28;20188;-61
2022/01/31 03:16:52;;;;;;;9.25;8.65;;;;;;;4.49;100.00;101176.00;5166341;28;20112;-60
2022/01/31 03:19:23;;;;;;;9.50;8.70;;;;;;;4.55;100.00;101179.69;5166440;28;20540;-61
2022/01/31 03:21:53;;;;;;;11.00;9.27;;;;;;;4.59;100.00;101186.28;5166428;28;20430;-58
2022/01/31 03:24:24;;;;;;;12.05;7.95;;;;;;;4.69;100.00;101174.09;5166347;28;20030;-57
2022/01/31 03:26:54;;;;;;;11.82;10.90;;;;;;;4.73;100.00;101169.16;5166310;28;20125;-61
2022/01/31 03:29:25;;;;;;;16.38;9.50;;;;;;;4.80;100.00;101171.81;5166320;28;20060;-59
2022/01/31 03:31:55;;;;;;;12.85;8.32;;;;;;;4.92;100.00;101164.75;5166235;28;20393;-57
2022/01/31 03:34:26;;;;;;;15.43;8.18;;;;;;;4.98;100.00;101154.03;5183581;28;20030;-56
2022/01/31 03:36:56;;;;;;;12.68;6.72;;;;;;;4.98;100.00;101158.56;5166305;28;20060;-58
2022/01/31 03:39:27;;;;;;;10.02;7.80;;;;;;;5.02;100.00;101159.78;5166280;28;20033;-58
2022/01/31 03:41:57;;;;;;;25.55;10.15;;;;;;;5.04;100.00;101149.69;5168719;28;20026;-61
2022/01/31 03:44:29;;;;;;;14.07;7.70;;;;;;;5.04;100.00;101153.19;5169706;28;20109;-57
2022/01/31 03:47:00;;;;;;;13.38;6.45;;;;;;;5.10;100.00;101151.53;5169772;28;20022;-57
2022/01/31 03:49:30;;;;;;;13.07;7.00;;;;;;;5.19;100.00;101141.41;5169691;28;20037;-57
2022/01/31 03:52:01;;;;;;;14.23;6.95;;;;;;;5.23;100.00;101130.03;5169593;28;20465;-58
2022/01/31 03:54:32;;;;;;;9.80;7.28;;;;;;;5.15;100.00;101132.97;5169320;28;20116;-58
2022/01/31 03:57:02;;;;;;;13.20;8.00;;;;;;;5.04;100.00;101133.63;5169526;28;20088;-60
2022/01/31 03:59:33;;;;;;;15.50;5.55;;;;;;;4.94;100.00;101135.94;5193223;22;20066;-84
2022/01/31 04:02:06;;;;;;;15.00;5.57;;;;;;;5.14;100.00;101143.91;5192471;28;20073;-85
2022/01/31 04:04:36;;;;;;;17.45;7.45;;;;;;;5.14;100.00;101135.88;5173976;28;20026;-84
2022/01/31 04:07:07;;;;;;;14.90;6.35;;;;;;;4.79;100.00;101060.47;5172859;28;20041;-84
2022/01/31 04:09:37;;;;;;;13.15;6.78;;;;;;;5.19;100.00;101128.84;5156302;28;20030;-84
2022/01/31 04:12:08;;;;;;;18.10;6.70;;;;;;;4.91;100.00;101078.31;5173563;28;20125;-84
2022/01/31 04:14:39;;;;;;;11.55;5.28;;;;;;;4.78;100.00;101056.16;5156064;28;20318;-84
2022/01/31 04:17:10;;;;;;;10.60;6.13;;;;;;;4.84;100.00;101055.31;5174615;28;20018;-84
2022/01/31 04:19:41;;;;;;;9.07;5.43;;;;;;;4.65;100.00;101062.38;5174289;28;20030;-84
2022/01/31 04:22:15;;;;;;;8.50;6.53;;;;;;;5.07;100.00;101147.41;5173172;28;20029;-84
2022/01/31 04:24:48;;;;;;;12.25;6.20;;;;;;;4.75;100.00;101078.81;5173250;28;20029;-84
2022/01/31 04:27:19;;;;;;;9.07;5.35;;;;;;;4.48;100.00;101042.50;5173049;28;20049;-84
2022/01/31 04:29:50;;;;;;;12.27;6.32;;;;;;;4.45;100.00;101046.41;5155425;28;20026;-84
2022/01/31 04:32:20;;;;;;;8.60;6.93;;;;;;;4.76;100.00;101091.16;5155000;28;20025;-84
2022/01/31 04:34:50;;;;;;;8.93;4.57;;;;;;;4.22;100.00;101006.81;5172756;28;20115;-84
2022/01/31 04:37:21;;;;;;;10.82;6.32;;;;;;;4.49;100.00;101047.63;5173067;28;20037;-84
2022/01/31 04:39:51;;;;;;;7.35;5.47;;;;;;;4.25;100.00;100987.66;5173413;28;20034;-85
2022/01/31 04:42:23;;;;;;;12.48;6.45;;;;;;;4.99;100.00;101107.50;5154998;28;20030;-83
2022/01/31 04:44:57;;;;;;;5.70;4.97;;;;;;;5.02;100.00;101115.09;5171712;28;20033;-84
2022/01/31 04:47:28;;;;;;;10.05;6.55;;;;;;;4.34;100.00;101004.28;5171837;28;20026;-84
2022/01/31 04:49:58;;;;;;;10.40;5.03;;;;;;;5.03;100.00;101121.28;5156223;28;20030;-84
2022/01/31 04:52:29;;;;;;;9.90;5.68;;;;;;;4.86;100.00;101086.19;5156994;28;20030;-83
2022/01/31 04:54:59;;;;;;;7.47;5.53;;;;;;;4.74;100.00;101090.53;5157238;28;20027;-83
2022/01/31 04:57:30;;;;;;;12.40;6.55;;;;;;;4.75;100.00;101089.50;5173729;28;20072;-84
2022/01/31 05:00:00;;;;;;;7.47;5.25;;;;;;;4.85;100.00;101111.28;5174053;28;20041;-84
2022/01/31 05:02:31;;;;;;;8.57;6.38;;;;;;;4.88;100.00;101102.00;5173822;28;20058;-84
2022/01/31 05:05:03;;;;;;;18.80;6.75;;;;;;;5.00;100.00;101113.69;5172877;28;20018;-84
2022/01/31 05:07:33;;;;;;;5.50;5.03;;;;;;;4.79;100.00;101079.19;5156459;28;20381;-84
2022/01/31 05:10:04;;;;;;;12.35;6.93;;;;;;;5.06;100.00;101105.63;5172523;28;20033;-84
2022/01/31 05:12:35;;;;;;;17.52;7.07;;;;;;;5.23;100.00;101111.28;5173987;28;20027;-83
2022/01/31 05:15:05;;;;;;;17.05;6.53;;;;;;;5.22;100.00;101096.25;5173742;28;20022;-84
2022/01/31 05:17:36;;;;;;;10.10;6.40;;;;;;;5.03;100.00;101068.56;5173612;28;20040;-84
2022/01/31 05:20:07;;;;;;;15.50;6.78;;;;;;;5.13;100.00;101084.19;5156556;28;20034;-84
2022/01/31 05:22:38;;;;;;;7.18;6.50;;;;;;;5.22;100.00;101095.44;5170946;28;20037;-84
2022/01/31 05:25:08;;;;;;;12.02;4.97;;;;;;;5.19;100.00;101077.97;5170257;28;20515;-84
2022/01/31 05:27:39;;;;;;;10.15;6.30;;;;;;;5.45;100.00;101100.25;5171741;28;20026;-84
2022/01/31 05:30:09;;;;;;;10.48;7.45;;;;;;;5.47;100.00;101096.34;5170076;28;20117;-83
2022/01/31 05:32:40;;;;;;;5.78;4.72;;;;;;;5.46;100.00;101101.91;5154852;28;20022;-84
2022/01/31 05:35:11;;;;;;;8.70;5.50;;;;;;;5.36;100.00;101081.75;5154908;28;20030;-84
2022/01/31 05:37:42;;;;;;;13.50;5.85;;;;;;;5.38;100.00;101081.56;5172959;28;20019;-83
2022/01/31 05:40:13;;;;;;;11.18;5.68;;;;;;;5.50;100.00;101092.38;5176028;28;20027;-87
2022/01/31 05:42:43;;;;;;;7.68;4.90;;;;;;;5.38;100.00;101060.13;5177003;28;20061;-85
2022/01/31 05:45:14;;;;;;;18.95;7.20;;;;;;;5.45;100.00;101092.22;5177472;28;20018;-84
2022/01/31 05:47:44;;;;;;;8.68;6.43;;;;;;;5.47;100.00;101071.41;5157095;28;20038;-86
2022/01/31 05:50:14;;;;;;;6.88;5.20;;;;;;;5.53;100.00;101082.03;5173666;28;20034;-88
2022/01/31 05:52:45;;;;;;;9.30;6.18;;;;;;;5.37;100.00;101064.66;5155731;28;20096;-85
2022/01/31 05:55:16;;;;;;;9.15;4.85;;;;;;;5.53;100.00;101084.72;5171166;28;20030;-84
2022/01/31 05:57:46;;;;;;;9.30;5.93;;;;;;;5.43;100.00;101082.56;5152051;28;20387;-85
2022/01/31 06:00:17;;;;;;;15.77;6.90;;;;;;;5.56;100.00;101086.97;5165721;28;20037;-86
2022/01/31 06:02:54;;;;;;;11.10;6.70;;;;;;;5.54;100.00;101081.00;5167073;28;20030;-88
2022/01/31 06:05:26;;;;;;;13.48;6.57;;;;;;;5.61;100.00;101081.78;5149643;28;20037;-84
2022/01/31 06:07:56;;;;;;;7.18;4.75;;;;;;;5.49;100.00;101070.13;5155759;28;20510;-85
2022/01/31 06:10:27;;;;;;;10.95;5.63;;;;;;;5.31;100.00;101044.09;5186269;28;20113;-85
2022/01/31 06:12:57;;;;;;;8.57;4.75;;;;;;;5.53;100.00;101082.03;5169283;28;20052;-84
2022/01/31 06:15:28;;;;;;;8.38;5.07;;;;;;;4.97;100.00;101012.41;5187082;28;20032;-83
2022/01/31 06:17:58;;;;;;;5.55;4.78;;;;;;;5.22;100.00;101023.97;5186716;28;20373;-86
2022/01/31 06:20:28;;;;;;;14.35;6.65;;;;;;;5.56;100.00;101103.03;5189672;28;20022;-84
2022/01/31 06:22:59;;;;;;;7.60;4.20;;;;;;;5.26;100.00;101062.66;5189819;28;20535;-85
2022/01/31 06:25:31;;;;;;;13.40;5.63;;;;;;;5.22;100.00;101068.66;5167122;28;20029;-83
2022/01/31 06:28:04;;;;;;;5.32;4.40;;;;;;;5.11;100.00;101062.16;5173710;28;20505;-84
2022/01/31 06:30:36;;;;;;;7.45;4.90;;;;;;;3.94;100.00;100883.38;5172669;28;20022;-85
2022/01/31 06:33:06;;;;;;;17.02;6.75;;;;;;;5.16;100.00;101091.78;5170877;28;20411;-85
2022/01/31 06:35:37;;;;;;;9.82;5.93;;;;;;;4.88;100.00;101081.44;5171972;28;20028;-88
2022/01/31 06:38:12;;;;;;;13.25;4.90;;;;;;;4.62;100.00;101046.78;5171611;28;20060;-86
2022/01/31 06:40:42;;;;;;;14.07;6.45;;;;;;;4.50;100.00;101059.97;5168277;28;20045;-83
2022/01/31 06:43:13;;;;;;;20.25;6.65;;;;;;;4.65;100.00;101100.63;5167645;28;20030;-87
2022/01/31 06:45:43;;;;;;;9.77;6.55;;;;;;;4.25;100.00;101051.00;5167048;28;20396;-86
2022/01/31 06:48:14;;;;;;;10.13;6.22;;;;;;;3.80;100.00;101032.16;5165081;28;20124;-85
2022/01/31 06:50:44;;;;;;;8.30;6.18;;;;;;;3.83;100.00;101047.78;5185051;28;20033;-87
2022/01/31 06:53:17;;;;;;;7.57;6.93;;;;;;;4.24;100.00;101114.34;5186875;28;20037;-87
2022/01/31 06:55:47;;;;;;;9.07;7.88;;;;;;;3.94;100.00;101086.41;5168223;28;20545;-85
2022/01/31 06:58:17;;;;;;;7.90;7.13;;;;;;;4.12;100.00;101107.97;5186630;28;20110;-86
2022/01/31 07:00:48;;;;;;;6.50;6.00;;;;;;;4.07;100.00;101116.59;5154233;28;20027;-86
2022/01/31 07:03:19;;;;;;;10.98;7.70;;;;;;;3.93;100.00;101103.47;5146404;28;20069;-88
2022/01/31 07:05:49;;;;;;;15.18;7.55;;;;;;;3.72;100.00;101077.81;5147258;28;20081;-87
2022/01/31 07:08:19;;;;;;;11.02;6.68;;;;;;;3.93;100.00;101123.00;5145925;28;20026;-88
2022/01/31 07:10:52;;;;;;;13.95;6.28;;;;;;;3.86;100.00;101082.09;5150223;28;20494;-84
2022/01/31 07:16:05;;;;;;;10.20;5.35;;;;;;;3.80;100.00;101096.28;5182042;28;20042;-84
2022/01/31 07:18:37;;;;;;;5.90;5.40;;;;;;;4.02;100.00;101096.91;5166199;28;20026;-85
2022/01/31 07:21:12;;;;;;;9.48;6.93;;;;;;;3.91;100.00;101087.66;5173671;28;20030;-88
2022/01/31 07:26:22;;;;;;;16.55;7.93;;;;;;;4.08;100.00;101142.28;5191300;28;20037;-86
2022/01/31 07:28:52;;;;;;;11.55;6.00;;;;;;;3.79;100.00;101086.59;5186719;28;20447;-86
2022/01/31 07:31:22;;;;;;;7.70;7.05;;;;;;;4.06;100.00;101139.00;5153865;28;20026;-86
2022/01/31 07:33:53;;;;;;;14.93;6.47;;;;;;;4.06;100.00;101139.00;5153574;28;20033;-86
2022/01/31 07:36:23;;;;;;;11.20;6.55;;;;;;;4.03;100.00;101142.13;5153681;28;20398;-86
2022/01/31 07:38:54;;;;;;;15.77;8.27;;;;;;;4.04;100.00;101157.09;5163723;28;20411;-85
2022/01/31 07:41:24;;;;;;;13.65;6.78;;;;;;;3.99;100.00;101151.56;5151383;28;20092;-85
2022/01/31 07:43:55;;;;;;;13.63;8.98;;;;;;;3.90;100.00;101163.47;5151927;28;20026;-87
2022/01/31 07:46:25;;;;;;;9.02;7.72;;;;;;;3.72;100.00;101123.22;5150408;28;20036;-86
2022/01/31 07:48:55;;;;;;;8.07;7.32;;;;;;;3.80;100.00;101133.66;5167753;28;20014;-86
2022/01/31 07:51:26;;;;;;;8.93;7.90;;;;;;;3.83;100.00;101151.97;5168025;28;20053;-85
2022/01/31 07:53:57;;;;;;;12.48;7.25;;;;;;;3.83;100.00;101141.28;5151167;28;20113;-85
2022/01/31 07:56:27;;;;;;;13.00;7.90;;;;;;;3.69;100.00;101135.13;5166206;28;20550;-85
2022/01/31 07:58:58;;;;;;;20.27;10.75;;;;;;;3.79;100.00;101157.91;5150301;28;20037;-89
2022/01/31 08:01:29;;;;;;;20.38;8.52;;;;;;;3.92;100.00;101169.44;5149738;28;20034;-85
2022/01/31 08:04:00;;;;;;;13.57;8.35;;;;;;;3.80;100.00;101124.81;5149925;28;20552;-84
2022/01/31 08:06:30;;;;;;;21.67;8.45;;;;;;;3.94;100.00;101119.28;5150103;28;20056;-85
2022/01/31 08:09:01;;;;;;;12.55;8.32;;;;;;;4.33;100.00;101171.09;5149790;28;20018;-84
2022/01/31 08:11:33;;;;;;;7.40;6.75;;;;;;;4.42;100.00;101172.50;5149630;28;20030;-84
2022/01/31 08:14:09;;;;;;;23.60;8.43;;;;;;;4.29;100.00;101140.44;5166864;28;20377;-83
2022/01/31 08:16:39;;;;;;;10.27;6.25;;;;;;;4.39;100.00;101171.06;5149328;28;20400;-83
2022/01/31 08:19:10;;;;;;;13.63;7.28;;;;;;;4.61;100.00;101209.09;5167843;28;20023;-84
2022/01/31 08:21:40;;;;;;;8.48;6.50;;;;;;;4.59;100.00;101181.75;5149381;28;20037;-83
2022/01/31 08:24:10;;;;;;;6.97;5.80;;;;;;;4.58;100.00;101182.78;5161372;28;20029;-82
2022/01/31 08:26:41;;;;;;;8.70;6.00;;;;;;;4.69;100.00;101158.03;5168344;28;20022;-83
2022/01/31 08:29:21;;;;;;;9.73;7.68;;;;;;;4.71;100.00;101185.41;5169362;28;20091;-82
2022/01/31 08:31:53;;;;;;;12.40;7.43;;;;;;;4.56;100.00;101160.75;5169277;28;20372;-83
2022/01/31 08:35:47;;;;;;;12.40;7.40;;;;;;;4.74;100.00;101168.13;5186840;28;20732;-83
2022/01/31 08:37:14;;;;;;;12.25;6.53;;;;;;;4.86;100.00;101185.19;5186673;28;20033;-85
2022/01/31 08:39:44;;;;;;;11.07;6.05;;;;;;;4.66;100.00;101139.72;5169148;28;20033;-83
2022/01/31 08:42:15;;;;;;;17.85;6.88;;;;;;;4.96;100.00;101204.28;5169148;28;20049;-82
2022/01/31 08:44:48;;;;;;;19.10;7.05;;;;;;;4.76;100.00;101168.72;5186379;28;20018;-83
2022/01/31 08:47:19;;;;;;;13.38;7.72;;;;;;;4.82;100.00;101204.53;5169174;28;20034;-83
2022/01/31 08:49:49;;;;;;;12.93;6.10;;;;;;;4.85;100.00;101199.59;5169668;28;20033;-82
2022/01/31 08:52:20;;;;;;;22.77;7.32;;;;;;;5.09;100.00;101222.16;5187206;28;20377;-83
2022/01/31 08:54:50;;;;;;;11.32;5.82;;;;;;;5.02;100.00;101192.72;5169506;28;20025;-83
2022/01/31 08:57:20;;;;;;;10.32;5.07;;;;;;;5.24;100.00;101213.84;5187239;28;20032;-84
2022/01/31 08:59:52;;;;;;;13.15;5.85;;;;;;;5.09;100.00;101206.09;5178324;28;20037;-85
2022/01/31 09:02:36;;;;;;;13.80;6.93;;;;;;;5.19;100.00;101219.03;5181715;28;20488;-83
2022/01/31 09:05:07;;;;;;;9.75;6.30;;;;;;;5.20;100.00;101221.47;5178212;28;20030;-84
2022/01/31 09:07:37;;;;;;;6.32;5.80;;;;;;;5.22;100.00;101218.59;5177858;28;20080;-85
2022/01/31 09:10:08;;;;;;;14.63;6.55;;;;;;;5.10;100.00;101183.66;5178528;28;20080;-85
2022/01/31 09:12:39;;;;;;;9.93;5.57;;;;;;;5.27;100.00;101183.97;5172328;28;20030;-85
2022/01/31 09:15:12;;;;;;;5.30;4.55;;;;;;;5.30;100.00;101211.16;5171305;28;20089;-87
2022/01/31 09:17:43;;;;;;;20.42;7.00;;;;;;;5.31;100.00;101214.66;5171548;28;20044;-86
2022/01/31 09:20:14;;;;;;;15.45;8.25;;;;;;;5.26;100.00;101215.28;5171034;28;20018;-84
2022/01/31 09:22:45;;;;;;;13.60;7.28;;;;;;;5.33;100.00;101226.78;5171246;28;20053;-85
2022/01/31 09:25:15;;;;;;;7.90;6.38;;;;;;;4.97;100.00;101187.19;5170887;28;20444;-82
2022/01/31 09:27:46;;;;;;;15.20;8.02;;;;;;;4.59;100.00;101203.13;5187891;28;20026;-84
2022/01/31 09:30:18;;;;;;;12.23;7.93;;;;;;;4.62;100.00;101293.63;5169045;28;20029;-84
2022/01/31 09:32:48;;;;;;;19.13;9.40;;;;;;;4.34;100.00;101261.75;5168941;28;20025;-83
2022/01/31 09:35:19;;;;;;;15.50;6.65;;;;;;;4.37;100.00;101303.31;5168744;28;20376;-84
2022/01/31 09:37:49;;;;;;;8.10;6.18;;;;;;;4.17;100.00;101276.56;5168151;28;20396;-83
2022/01/31 09:40:23;;;;;;;8.02;5.72;;;;;;;4.23;100.00;101245.53;5168282;28;20104;-84
2022/01/31 09:48:41;;;;;;;20.57;6.47;;;;;;;4.68;100.00;101290.16;5185892;28;20037;-84
2022/01/31 09:51:13;;;;;;;12.88;4.47;;;;;;;4.78;100.00;101279.03;5185484;28;20268;-84
2022/01/31 09:53:56;;;;;;;6.82;6.10;;;;;;;4.70;100.00;101245.28;5185705;28;20099;-86
2022/01/31 09:56:31;;;;;;;20.02;9.93;;;;;;;4.95;100.00;101276.75;5167968;28;20026;-85
2022/01/31 09:59:03;;;;;;;17.25;7.30;;;;;;;5.03;100.00;101284.56;5186147;28;20125;-83
2022/01/31 10:01:42;;;;;;;10.40;7.45;;;;;;;5.07;100.00;101281.25;5185368;28;20041;-84
2022/01/31 10:04:18;;;;;;;12.40;8.03;;;;;;;5.15;100.00;101290.09;5170330;28;20018;-86
2022/01/31 10:06:54;;;;;;;7.50;6.03;;;;;;;5.22;100.00;101297.06;5170485;28;20060;-83
2022/01/31 10:09:30;;;;;;;18.98;8.38;;;;;;;5.22;100.00;101286.34;5171913;28;20120;-82
2022/01/31 10:12:29;;;;;;;12.73;7.93;;;;;;;5.37;100.00;101276.22;5169073;28;20483;-83
2022/01/31 10:17:45;;;;;;;8.82;4.78;;;;;;;5.36;100.00;101290.66;5188636;28;20104;-84
2022/01/31 10:20:18;;;;;;;17.45;7.00;;;;;;;5.48;100.00;101309.56;5169897;28;20018;-84
2022/01/31 10:22:49;;;;;;;15.57;7.68;;;;;;;5.49;100.00;101300.47;5170214;28;20034;-84
2022/01/31 10:25:23;;;;;;;21.83;7.95;;;;;;;5.57;100.00;101310.97;5187606;28;20460;-84
2022/01/31 10:27:54;;;;;;;29.52;7.93;;;;;;;5.64;100.00;101303.72;5169980;28;20040;-84
2022/01/31 10:30:27;;;;;;;9.05;6.10;;;;;;;5.61;100.00;101324.75;5187290;28;20077;-84
2022/01/31 10:32:58;;;;;;;11.88;6.68;;;;;;;5.65;100.00;101334.84;5169893;28;20495;-85
2022/01/31 10:35:32;;;;;;;15.85;7.80;;;;;;;5.47;100.00;101321.31;5169615;28;20041;-84
2022/01/31 10:38:09;;;;;;;13.52;6.80;;;;;;;5.72;100.00;101349.06;5169447;28;20025;-83
2022/01/31 10:57:26;;;;;;;12.10;5.93;;;;;;;5.63;100.00;101352.16;5195508;28;20408;-84
2022/01/31 11:00:00;;;;;;;9.68;5.53;;;;;;;5.63;100.00;101401.22;5144653;28;20042;-82
2022/01/31 11:02:31;;;;;;;14.18;6.07;;;;;;;5.65;100.00;101368.84;5195116;28;20022;-84
2022/01/31 11:05:03;;;;;;;12.45;7.45;;;;;;;5.40;100.00;101318.66;5177751;28;20550;-83
2022/01/31 11:07:35;;;;;;;16.60;6.90;;;;;;;5.63;100.00;101352.16;5180541;28;20030;-84
2022/01/31 11:10:23;;;;;;;14.00;8.15;;;;;;;5.69;100.00;101376.25;5178539;28;20510;-84
2022/01/31 11:12:54;;;;;;;27.17;8.40;;;;;;;5.65;100.00;101385.75;5178753;28;20030;-84
2022/01/31 11:15:25;;;;;;;9.25;8.02;;;;;;;5.66;100.00;101365.97;5196001;28;20030;-87
2022/01/31 11:18:00;;;;;;;14.98;7.90;;;;;;;5.58;100.00;101378.75;5177771;28;20057;-84
2022/01/31 11:20:30;;;;;;;20.98;8.07;;;;;;;5.33;100.00;101371.41;5177736;28;20021;-83
2022/01/31 11:23:02;;;;;;;14.63;7.68;;;;;;;5.61;100.00;101391.75;5195750;28;20377;-82
2022/01/31 11:25:37;;;;;;;18.60;7.05;;;;;;;5.48;100.00;101383.75;5178109;28;20534;-82
2022/01/31 11:28:10;;;;;;;16.00;8.38;;;;;;;4.98;100.00;101327.19;5178407;28;20088;-83
2022/01/31 11:30:41;;;;;;;18.90;8.25;;;;;;;5.15;100.00;101365.88;5195514;28;20021;-83
2022/01/31 11:33:12;;;;;;;29.60;9.93;;;;;;;5.20;100.00;101403.53;5178019;28;20376;-86
2022/01/31 11:35:43;;;;;;;22.80;7.45;;;;;;;5.14;100.00;101396.34;5177442;28;20029;-82
2022/01/31 11:38:16;;;;;;;28.58;10.32;;;;;;;5.10;100.00;101392.44;5195556;28;20104;-87
2022/01/31 11:40:47;;;;;;;25.92;10.15;;;;;;;5.04;100.00;101383.38;5195076;28;20081;-87
2022/01/31 11:43:20;;;;;;;26.85;9.57;;;;;;;5.08;100.00;101383.78;5177348;28;20041;-84
2022/01/31 11:45:52;;;;;;;32.40;10.93;;;;;;;5.12;100.00;101405.63;5177860;28;20050;-85
2022/01/31 11:48:25;;;;;;;19.75;9.32;;;;;;;5.20;100.00;101397.38;5178741;28;20065;-83
2022/01/31 11:50:59;;;;;;;18.27;9.20;;;;;;;5.20;100.00;101387.47;5177470;28;20033;-84
2022/01/31 11:53:37;;;;;;;20.10;8.80;;;;;;;5.30;100.00;101387.88;5195076;28;20084;-84
2022/01/31 11:56:14;;;;;;;30.40;10.85;;;;;;;5.32;100.00;101401.88;5194667;28;20030;-85
2022/01/31 11:58:48;;;;;;;25.77;7.90;;;;;;;5.13;100.00;101373.28;5177840;28;20028;-83
2022/01/31 12:01:20;;;;;;;15.15;9.80;;;;;;;5.16;100.00;101375.56;5175312;28;20511;-83
2022/01/31 12:03:57;;;;;;;27.70;9.73;;;;;;;5.34;100.00;101402.50;5176883;28;20030;-83
2022/01/31 12:06:29;;;;;;;23.38;8.63;;;;;;;5.35;100.00;101411.38;5177611;28;20022;-84
2022/01/31 12:09:11;;;;;;;22.08;9.18;;;;;;;5.33;100.00;101405.41;5176837;28;20069;-84
2022/01/31 12:12:06;;;;;;;25.20;9.73;;;;;;;5.33;100.00;101414.25;5175617;28;20053;-83
2022/01/31 12:14:51;;;;;;;37.08;11.50;;;;;;;5.18;100.00;101423.56;5176605;28;20415;-85